createdAt,value
2022-09-06T00:02:47.197Z,99.6
2022-09-06T00:07:47.142Z,99.6
2022-09-06T00:12:47.128Z,99.6
2022-09-06T00:17:47.125Z,99.7
2022-09-06T00:22:47.120Z,99.9
2022-09-06T00:27:47.113Z,100
2022-09-06T00:32:47.104Z,100
2022-09-06T00:37:47.104Z,100
2022-09-06T00:42:47.102Z,100
2022-09-06T00:47:47.089Z,100
2022-09-06T00:52:47.092Z,100
2022-09-06T00:57:47.068Z,100
2022-09-06T01:02:47.206Z,100
2022-09-06T01:07:47.068Z,100
2022-09-06T01:12:47.063Z,100
2022-09-06T01:17:47.055Z,100
2022-09-06T01:22:47.044Z,100
2022-09-06T01:27:47.045Z,100
2022-09-06T01:32:47.040Z,100
2022-09-06T01:37:47.031Z,100
2022-09-06T01:42:47.028Z,100
2022-09-06T01:47:47.027Z,100
2022-09-06T01:52:47.019Z,100
2022-09-06T01:57:47.012Z,100
2022-09-06T02:02:47.022Z,100
2022-09-06T02:07:47.017Z,100
2022-09-06T02:12:46.996Z,100
2022-09-06T02:17:46.983Z,100
2022-09-06T02:22:46.982Z,100
2022-09-06T02:27:46.970Z,100
2022-09-06T02:32:46.975Z,100
2022-09-06T02:52:46.956Z,100
2022-09-06T02:57:46.926Z,100
2022-09-06T03:02:47.027Z,100
2022-09-06T03:07:46.922Z,100
2022-09-06T03:12:46.928Z,100
2022-09-06T03:17:46.929Z,100
2022-09-06T03:22:46.913Z,100
2022-09-06T03:27:46.913Z,100
2022-09-06T03:32:46.901Z,100
2022-09-06T03:37:46.887Z,100
2022-09-06T03:42:46.878Z,100
2022-09-06T03:47:46.876Z,100
2022-09-06T03:52:46.877Z,100
2022-09-06T03:57:46.860Z,100
2022-09-06T04:02:46.913Z,100
2022-09-06T04:07:46.853Z,100
2022-09-06T04:12:46.848Z,100
2022-09-06T04:17:46.834Z,100
2022-09-06T04:22:46.836Z,100
2022-09-06T04:27:46.848Z,100
2022-09-06T04:32:46.831Z,100
2022-09-06T04:37:46.813Z,100
2022-09-06T04:42:46.826Z,100
2022-09-06T04:47:46.801Z,100
2022-09-06T04:52:46.794Z,100
2022-09-06T04:57:50.725Z,100
2022-09-06T05:07:46.777Z,100
2022-09-06T05:17:46.794Z,100
2022-09-06T05:32:46.752Z,100
2022-09-06T05:37:46.748Z,100
2022-09-06T05:42:46.763Z,98.6
2022-09-06T05:47:46.737Z,96.7
2022-09-06T05:52:46.745Z,95.3
2022-09-06T05:57:46.739Z,93.6
2022-09-06T06:02:46.828Z,91.8
2022-09-06T06:07:46.715Z,90
2022-09-06T06:12:46.708Z,88
2022-09-06T06:17:46.703Z,85.4
2022-09-06T06:22:46.695Z,84
2022-09-06T06:27:46.682Z,82.8
2022-09-06T06:32:46.697Z,81.4
2022-09-06T06:37:46.690Z,80.3
2022-09-06T06:42:46.683Z,78.3
2022-09-06T06:47:46.667Z,77.3
2022-09-06T06:57:46.687Z,76.4
2022-09-06T07:02:46.655Z,75.7
2022-09-06T07:07:46.641Z,74.9
2022-09-06T07:12:46.659Z,75.3
2022-09-06T07:17:46.627Z,75.4
2022-09-06T07:22:46.607Z,76.4
2022-09-06T07:27:46.877Z,77.2
2022-09-06T07:32:46.619Z,78.5
2022-09-06T07:37:46.601Z,79.3
2022-09-06T07:42:46.599Z,79.5
2022-09-06T07:48:01.884Z,78.6
2022-09-06T07:57:46.612Z,75.5
2022-09-06T08:02:46.580Z,71
2022-09-06T08:07:46.608Z,69.1
2022-09-06T08:12:46.561Z,68
2022-09-06T08:17:46.549Z,67.5
2022-09-06T08:22:46.545Z,67.2
2022-09-06T08:27:46.546Z,67.9
2022-09-06T08:32:46.543Z,66.6
2022-09-06T08:37:46.532Z,66.4
2022-09-06T08:42:46.527Z,66.8
2022-09-06T08:47:46.507Z,66.3
2022-09-06T08:53:00.053Z,69.1
2022-09-06T08:57:46.505Z,68.9
2022-09-06T09:02:46.507Z,66.3
2022-09-06T09:07:46.483Z,65.3
2022-09-06T09:12:46.497Z,65
2022-09-06T09:17:46.491Z,64.9
2022-09-06T09:22:46.461Z,65.8
2022-09-06T09:27:46.452Z,65.7
2022-09-06T09:32:46.461Z,67.1
2022-09-06T09:37:46.808Z,67.6
2022-09-06T09:42:46.442Z,66.7
2022-09-06T09:47:46.428Z,66.4
2022-09-06T09:52:46.431Z,66.9
2022-09-06T09:57:46.420Z,65.9
2022-09-06T10:02:46.418Z,67.1
2022-09-06T10:07:46.407Z,68.7
2022-09-06T10:12:46.414Z,69.3
2022-09-06T10:17:46.393Z,69.7
2022-09-06T10:22:46.390Z,68.6
2022-09-06T10:28:01.561Z,67.5
2022-09-06T10:32:46.371Z,66.6
2022-09-06T10:37:46.365Z,65.7
2022-09-06T10:42:46.340Z,66.2
2022-09-06T10:47:46.366Z,65.6
2022-09-06T10:52:46.343Z,64.7
2022-09-06T11:02:46.371Z,65.2
2022-09-06T11:12:46.314Z,62.9
2022-09-06T11:17:46.323Z,61.5
2022-09-06T11:22:46.304Z,58
2022-09-06T11:27:46.292Z,58.9
2022-09-06T11:32:46.297Z,58.8
2022-09-06T11:37:46.281Z,59.2
2022-09-06T11:42:46.285Z,59.1
2022-09-06T11:47:46.282Z,59.1
2022-09-06T11:52:46.263Z,59.1
2022-09-06T11:57:46.255Z,59.2
2022-09-06T12:02:46.531Z,57.6
2022-09-06T12:07:46.233Z,57.1
2022-09-06T12:12:46.233Z,56.4
2022-09-06T12:17:46.233Z,55.2
2022-09-06T12:22:46.234Z,55.8
2022-09-06T12:27:46.217Z,55.6
2022-09-06T12:32:46.217Z,55.6
2022-09-06T12:37:46.204Z,54.4
2022-09-06T12:42:46.209Z,54
2022-09-06T12:47:46.192Z,54.9
2022-09-06T12:52:46.198Z,54.2
2022-09-06T12:57:46.199Z,54.6
2022-09-06T13:02:46.314Z,53.5
2022-09-06T13:07:46.158Z,54.3
2022-09-06T13:12:46.174Z,53.9
2022-09-06T13:17:46.160Z,52.3
2022-09-06T13:22:46.187Z,52.2
2022-09-06T13:27:46.151Z,52.5
2022-09-06T13:32:46.135Z,53
2022-09-06T13:37:46.134Z,52.1
2022-09-06T13:42:46.118Z,53.3
2022-09-06T13:47:46.112Z,53.3
2022-09-06T13:52:46.120Z,53.4
2022-09-06T13:57:46.109Z,54.7
2022-09-06T14:02:46.187Z,54.5
2022-09-06T14:07:46.096Z,54.9
2022-09-06T14:12:46.087Z,55.5
2022-09-06T14:17:46.072Z,56.1
2022-09-06T14:22:46.061Z,56.5
2022-09-06T14:27:46.078Z,56.8
2022-09-06T14:32:46.059Z,56.4
2022-09-06T14:37:46.046Z,56.1
2022-09-06T14:42:49.920Z,56.8
2022-09-06T14:47:46.054Z,56.4
2022-09-06T14:52:46.030Z,58.1
2022-09-06T14:57:46.037Z,57
2022-09-06T15:02:46.065Z,56.4
2022-09-06T15:07:46.001Z,56.6
2022-09-06T15:12:46.023Z,56.4
2022-09-06T15:17:45.998Z,55.4
2022-09-06T15:22:45.990Z,55.2
2022-09-06T15:27:46.023Z,56.3
2022-09-06T15:32:45.983Z,56.7
2022-09-06T15:37:45.978Z,56.7
2022-09-06T15:42:45.969Z,57.3
2022-09-06T15:47:45.967Z,57.8
2022-09-06T15:52:45.959Z,58
2022-09-06T15:57:45.968Z,58.3
2022-09-06T16:02:45.977Z,58.3
2022-09-06T16:07:45.940Z,59.8
2022-09-06T16:12:49.973Z,59.9
2022-09-06T16:17:45.918Z,62
2022-09-06T16:27:45.914Z,62.6
2022-09-06T16:32:45.907Z,62.7
2022-09-06T16:37:45.906Z,61.8
2022-09-06T16:42:45.897Z,61.4
2022-09-06T16:52:45.882Z,61.7
2022-09-06T16:57:45.863Z,62.4
2022-09-06T17:07:45.865Z,63.2
2022-09-06T17:12:45.848Z,66.1
2022-09-06T17:17:45.844Z,67.8
2022-09-06T17:22:50.824Z,69
2022-09-06T17:32:45.830Z,72.2
2022-09-06T17:37:45.825Z,72.5
2022-09-06T17:47:45.813Z,75.7
2022-09-06T17:52:45.791Z,75.8
2022-09-06T17:57:45.789Z,76.4
2022-09-06T18:02:45.787Z,78.1
2022-09-06T18:07:45.785Z,78.1
2022-09-06T18:12:45.765Z,79.1
2022-09-06T18:17:45.779Z,79
2022-09-06T18:22:45.761Z,78.5
2022-09-06T18:27:45.753Z,78.7
2022-09-06T18:37:45.725Z,79.5
2022-09-06T18:42:45.728Z,79.8
2022-09-06T18:47:45.719Z,80.2
2022-09-06T18:57:45.777Z,81
2022-09-06T19:02:50.707Z,80.7
2022-09-06T19:07:45.708Z,80.9
2022-09-06T19:12:47.549Z,80.6
2022-09-06T19:17:45.677Z,81.5
2022-09-06T19:22:45.679Z,80.3
2022-09-06T19:27:50.652Z,79.3
2022-09-06T19:42:45.645Z,79.5
2022-09-06T19:47:45.649Z,80.7
2022-09-06T19:52:50.633Z,82
2022-09-06T19:57:45.633Z,82
2022-09-06T20:02:45.610Z,83.2
2022-09-06T20:07:45.625Z,81.2
2022-09-06T20:12:45.622Z,80.9
2022-09-06T20:17:45.620Z,82
2022-09-06T20:22:45.595Z,81.9
2022-09-06T20:27:45.597Z,81.8
2022-09-06T20:32:50.587Z,82.7
2022-09-06T20:37:45.563Z,83
2022-09-06T20:42:45.590Z,84.3
2022-09-06T20:47:45.566Z,84.6
2022-09-06T20:52:45.564Z,85.8
2022-09-06T20:57:45.564Z,86.1
2022-09-06T21:02:45.536Z,86.9
2022-09-06T21:07:45.551Z,88.1
2022-09-06T21:12:45.535Z,88.1
2022-09-06T21:17:45.523Z,88.6
2022-09-06T21:22:45.543Z,89.3
2022-09-06T21:27:45.523Z,89.5
2022-09-06T21:32:45.523Z,89.9
2022-09-06T21:37:45.501Z,90.3
2022-09-06T21:42:45.488Z,91.1
2022-09-06T21:47:45.483Z,91.6
2022-09-06T21:52:45.486Z,91.9
2022-09-06T21:57:45.475Z,92.1
2022-09-06T22:12:45.492Z,92.5
2022-09-06T22:17:45.500Z,93.1
2022-09-06T22:22:45.446Z,93
2022-09-06T22:27:45.439Z,93.4
2022-09-06T22:32:45.441Z,94
2022-09-06T22:37:45.425Z,94.4
2022-09-06T22:42:45.419Z,94.5
2022-09-06T22:47:45.407Z,94.7
2022-09-06T22:52:45.415Z,95
2022-09-06T22:57:45.389Z,95.3
2022-09-06T23:02:45.392Z,95.4
2022-09-06T23:07:45.391Z,95.7
2022-09-06T23:12:45.387Z,96
2022-09-06T23:17:45.388Z,96
2022-09-06T23:22:45.381Z,96
2022-09-06T23:27:45.367Z,96.6
2022-09-06T23:32:45.379Z,96.9
2022-09-06T23:37:45.348Z,96.9
2022-09-06T23:42:45.362Z,97.3
2022-09-06T23:47:45.338Z,97.2
2022-09-06T23:52:45.337Z,97.7
2022-09-06T23:57:45.327Z,98.1
